sensor_id;sensor_type;location;lat;lon;timestamp;temperature;humidity
8664;DHT22;4369;47.842;13.096;2023-08-12T00:01:25;16.90;99.90
8664;DHT22;4369;47.842;13.096;2023-08-12T00:03:53;16.90;99.90
8664;DHT22;4369;47.842;13.096;2023-08-12T00:06:20;16.90;99.90
8664;DHT22;4369;47.842;13.096;2023-08-12T00:08:47;16.80;99.90
8664;DHT22;4369;47.842;13.096;2023-08-12T00:11:14;16.80;99.90
8664;DHT22;4369;47.842;13.096;2023-08-12T00:13:41;16.80;99.90
8664;DHT22;4369;47.842;13.096;2023-08-12T00:16:08;16.80;99.90
8664;DHT22;4369;47.842;13.096;2023-08-12T00:18:34;16.80;99.90
8664;DHT22;4369;47.842;13.096;2023-08-12T00:21:07;16.70;99.90
8664;DHT22;4369;47.842;13.096;2023-08-12T00:23:38;16.60;99.90
8664;DHT22;4369;47.842;13.096;2023-08-12T00:26:06;16.60;99.90
8664;DHT22;4369;47.842;13.096;2023-08-12T00:28:33;16.60;99.90
8664;DHT22;4369;47.842;13.096;2023-08-12T00:31:00;16.60;99.90
8664;DHT22;4369;47.842;13.096;2023-08-12T00:33:27;16.60;99.90
8664;DHT22;4369;47.842;13.096;2023-08-12T00:35:54;16.60;99.90
8664;DHT22;4369;47.842;13.096;2023-08-12T00:38:22;16.50;99.90
8664;DHT22;4369;47.842;13.096;2023-08-12T00:40:49;16.50;99.90
8664;DHT22;4369;47.842;13.096;2023-08-12T00:43:15;16.50;99.90
8664;DHT22;4369;47.842;13.096;2023-08-12T00:45:42;16.50;99.90
8664;DHT22;4369;47.842;13.096;2023-08-12T00:48:10;16.50;99.90
8664;DHT22;4369;47.842;13.096;2023-08-12T00:50:39;16.50;99.90
8664;DHT22;4369;47.842;13.096;2023-08-12T00:53:07;16.50;99.90
8664;DHT22;4369;47.842;13.096;2023-08-12T00:55:36;16.50;99.90
8664;DHT22;4369;47.842;13.096;2023-08-12T00:58:03;16.50;99.90
8664;DHT22;4369;47.842;13.096;2023-08-12T01:00:31;16.50;99.90
8664;DHT22;4369;47.842;13.096;2023-08-12T01:03:00;16.50;99.90
8664;DHT22;4369;47.842;13.096;2023-08-12T01:05:28;16.40;99.90
8664;DHT22;4369;47.842;13.096;2023-08-12T01:07:56;16.40;99.90
8664;DHT22;4369;47.842;13.096;2023-08-12T01:10:23;16.40;99.90
8664;DHT22;4369;47.842;13.096;2023-08-12T01:15:38;16.30;99.90
8664;DHT22;4369;47.842;13.096;2023-08-12T01:18:05;16.30;99.90
8664;DHT22;4369;47.842;13.096;2023-08-12T01:20:34;16.30;99.90
8664;DHT22;4369;47.842;13.096;2023-08-12T01:23:09;16.30;99.90
8664;DHT22;4369;47.842;13.096;2023-08-12T01:25:36;16.20;99.90
8664;DHT22;4369;47.842;13.096;2023-08-12T01:28:04;16.10;99.90
8664;DHT22;4369;47.842;13.096;2023-08-12T01:30:32;16.10;99.90
8664;DHT22;4369;47.842;13.096;2023-08-12T01:33:05;16.10;99.90
8664;DHT22;4369;47.842;13.096;2023-08-12T01:35:39;16.10;99.90
8664;DHT22;4369;47.842;13.096;2023-08-12T01:38:08;16.10;99.90
8664;DHT22;4369;47.842;13.096;2023-08-12T01:40:38;16.10;99.90
8664;DHT22;4369;47.842;13.096;2023-08-12T01:43:06;16.10;99.90
8664;DHT22;4369;47.842;13.096;2023-08-12T01:45:33;16.10;99.90
8664;DHT22;4369;47.842;13.096;2023-08-12T01:48:00;16.00;99.90
8664;DHT22;4369;47.842;13.096;2023-08-12T01:50:28;16.00;99.90
8664;DHT22;4369;47.842;13.096;2023-08-12T01:52:55;16.00;99.90
8664;DHT22;4369;47.842;13.096;2023-08-12T01:55:23;15.90;99.90
8664;DHT22;4369;47.842;13.096;2023-08-12T01:57:50;15.90;99.90
8664;DHT22;4369;47.842;13.096;2023-08-12T02:00:17;15.90;99.90
8664;DHT22;4369;47.842;13.096;2023-08-12T02:02:44;15.80;99.90
8664;DHT22;4369;47.842;13.096;2023-08-12T02:05:12;15.80;99.90
8664;DHT22;4369;47.842;13.096;2023-08-12T02:07:39;15.80;99.90
8664;DHT22;4369;47.842;13.096;2023-08-12T02:10:07;15.70;99.90
8664;DHT22;4369;47.842;13.096;2023-08-12T02:12:35;15.60;99.90
8664;DHT22;4369;47.842;13.096;2023-08-12T02:15:02;15.60;99.90
8664;DHT22;4369;47.842;13.096;2023-08-12T02:17:29;15.60;99.90
8664;DHT22;4369;47.842;13.096;2023-08-12T02:19:55;15.60;99.90
8664;DHT22;4369;47.842;13.096;2023-08-12T02:22:22;15.60;99.90
8664;DHT22;4369;47.842;13.096;2023-08-12T02:24:50;15.60;99.90
8664;DHT22;4369;47.842;13.096;2023-08-12T02:27:17;15.60;99.90
8664;DHT22;4369;47.842;13.096;2023-08-12T02:29:45;15.60;99.90
8664;DHT22;4369;47.842;13.096;2023-08-12T02:32:12;15.70;99.90
8664;DHT22;4369;47.842;13.096;2023-08-12T02:34:38;15.70;99.90
8664;DHT22;4369;47.842;13.096;2023-08-12T02:37:05;15.70;99.90
8664;DHT22;4369;47.842;13.096;2023-08-12T02:39:32;15.60;99.90
8664;DHT22;4369;47.842;13.096;2023-08-12T02:41:59;15.60;99.90
8664;DHT22;4369;47.842;13.096;2023-08-12T02:44:26;15.50;99.90
8664;DHT22;4369;47.842;13.096;2023-08-12T02:46:54;15.50;99.90
8664;DHT22;4369;47.842;13.096;2023-08-12T02:49:21;15.50;99.90
8664;DHT22;4369;47.842;13.096;2023-08-12T02:51:48;15.50;99.90
8664;DHT22;4369;47.842;13.096;2023-08-12T02:54:14;15.50;99.90
8664;DHT22;4369;47.842;13.096;2023-08-12T02:56:41;15.40;99.90
8664;DHT22;4369;47.842;13.096;2023-08-12T02:59:08;15.40;99.90
8664;DHT22;4369;47.842;13.096;2023-08-12T03:01:35;15.40;99.90
8664;DHT22;4369;47.842;13.096;2023-08-12T03:04:03;15.40;99.90
8664;DHT22;4369;47.842;13.096;2023-08-12T03:06:30;15.40;99.90
8664;DHT22;4369;47.842;13.096;2023-08-12T03:08:57;15.40;99.90
8664;DHT22;4369;47.842;13.096;2023-08-12T03:11:24;15.30;99.90
8664;DHT22;4369;47.842;13.096;2023-08-12T03:13:51;15.30;99.90
8664;DHT22;4369;47.842;13.096;2023-08-12T03:16:18;15.20;99.90
8664;DHT22;4369;47.842;13.096;2023-08-12T03:18:45;15.30;99.90
8664;DHT22;4369;47.842;13.096;2023-08-12T03:21:13;15.30;99.90
8664;DHT22;4369;47.842;13.096;2023-08-12T03:23:40;15.20;99.90
8664;DHT22;4369;47.842;13.096;2023-08-12T03:26:07;15.30;99.90
8664;DHT22;4369;47.842;13.096;2023-08-12T03:28:35;15.30;99.90
8664;DHT22;4369;47.842;13.096;2023-08-12T03:31:02;15.20;99.90
8664;DHT22;4369;47.842;13.096;2023-08-12T03:33:29;15.30;99.90
8664;DHT22;4369;47.842;13.096;2023-08-12T03:35:57;15.20;99.90
8664;DHT22;4369;47.842;13.096;2023-08-12T03:38:25;15.20;99.90
8664;DHT22;4369;47.842;13.096;2023-08-12T03:40:52;15.20;99.90
8664;DHT22;4369;47.842;13.096;2023-08-12T03:43:19;15.20;99.90
8664;DHT22;4369;47.842;13.096;2023-08-12T03:45:46;15.10;99.90
8664;DHT22;4369;47.842;13.096;2023-08-12T03:48:13;15.10;99.90
8664;DHT22;4369;47.842;13.096;2023-08-12T03:50:41;15.10;99.90
8664;DHT22;4369;47.842;13.096;2023-08-12T03:53:08;15.10;99.90
8664;DHT22;4369;47.842;13.096;2023-08-12T03:55:36;15.10;99.90
8664;DHT22;4369;47.842;13.096;2023-08-12T03:58:03;15.10;99.90
8664;DHT22;4369;47.842;13.096;2023-08-12T04:00:30;15.00;99.90
8664;DHT22;4369;47.842;13.096;2023-08-12T04:02:57;15.00;99.90
8664;DHT22;4369;47.842;13.096;2023-08-12T04:05:24;15.00;99.90
8664;DHT22;4369;47.842;13.096;2023-08-12T04:07:51;14.90;99.90
8664;DHT22;4369;47.842;13.096;2023-08-12T04:10:18;14.90;99.90
8664;DHT22;4369;47.842;13.096;2023-08-12T04:12:46;14.90;99.90
8664;DHT22;4369;47.842;13.096;2023-08-12T04:15:13;14.90;99.90
8664;DHT22;4369;47.842;13.096;2023-08-12T04:17:40;14.90;99.90
8664;DHT22;4369;47.842;13.096;2023-08-12T04:20:08;14.90;99.90
8664;DHT22;4369;47.842;13.096;2023-08-12T04:22:35;15.00;99.90
8664;DHT22;4369;47.842;13.096;2023-08-12T04:25:02;15.00;99.90
8664;DHT22;4369;47.842;13.096;2023-08-12T04:27:29;15.00;99.90
8664;DHT22;4369;47.842;13.096;2023-08-12T04:32:24;15.00;99.90
8664;DHT22;4369;47.842;13.096;2023-08-12T04:34:51;15.00;99.90
8664;DHT22;4369;47.842;13.096;2023-08-12T04:37:18;15.10;99.90
8664;DHT22;4369;47.842;13.096;2023-08-12T04:39:45;15.10;99.90
8664;DHT22;4369;47.842;13.096;2023-08-12T04:42:13;15.10;99.90
8664;DHT22;4369;47.842;13.096;2023-08-12T04:44:39;15.10;99.90
8664;DHT22;4369;47.842;13.096;2023-08-12T04:47:07;15.20;99.90
8664;DHT22;4369;47.842;13.096;2023-08-12T04:49:35;15.20;99.90
8664;DHT22;4369;47.842;13.096;2023-08-12T04:52:05;15.20;99.90
8664;DHT22;4369;47.842;13.096;2023-08-12T04:54:32;15.20;99.90
8664;DHT22;4369;47.842;13.096;2023-08-12T04:56:59;15.30;99.90
8664;DHT22;4369;47.842;13.096;2023-08-12T04:59:25;15.30;99.90
8664;DHT22;4369;47.842;13.096;2023-08-12T05:01:52;15.40;99.90
8664;DHT22;4369;47.842;13.096;2023-08-12T05:04:19;15.50;99.90
8664;DHT22;4369;47.842;13.096;2023-08-12T05:06:47;15.70;99.90
8664;DHT22;4369;47.842;13.096;2023-08-12T05:09:14;15.80;99.90
8664;DHT22;4369;47.842;13.096;2023-08-12T05:11:41;15.90;99.90
8664;DHT22;4369;47.842;13.096;2023-08-12T05:14:08;16.00;99.90
8664;DHT22;4369;47.842;13.096;2023-08-12T05:16:35;16.20;99.90
8664;DHT22;4369;47.842;13.096;2023-08-12T05:19:02;16.20;99.90
8664;DHT22;4369;47.842;13.096;2023-08-12T05:21:29;16.40;99.90
8664;DHT22;4369;47.842;13.096;2023-08-12T05:23:57;16.50;99.90
8664;DHT22;4369;47.842;13.096;2023-08-12T05:26:24;16.60;99.90
8664;DHT22;4369;47.842;13.096;2023-08-12T05:28:50;16.60;99.90
8664;DHT22;4369;47.842;13.096;2023-08-12T05:31:17;16.70;99.90
8664;DHT22;4369;47.842;13.096;2023-08-12T05:33:44;16.70;99.90
8664;DHT22;4369;47.842;13.096;2023-08-12T05:36:11;16.80;99.90
8664;DHT22;4369;47.842;13.096;2023-08-12T05:38:38;16.90;99.90
8664;DHT22;4369;47.842;13.096;2023-08-12T05:41:06;17.10;99.90
8664;DHT22;4369;47.842;13.096;2023-08-12T05:43:34;17.30;99.90
8664;DHT22;4369;47.842;13.096;2023-08-12T05:46:00;17.50;99.90
8664;DHT22;4369;47.842;13.096;2023-08-12T05:48:28;17.70;99.90
8664;DHT22;4369;47.842;13.096;2023-08-12T05:50:55;17.90;99.90
8664;DHT22;4369;47.842;13.096;2023-08-12T05:53:22;18.00;99.90
8664;DHT22;4369;47.842;13.096;2023-08-12T05:55:49;18.10;99.90
8664;DHT22;4369;47.842;13.096;2023-08-12T05:58:18;18.20;99.90
8664;DHT22;4369;47.842;13.096;2023-08-12T06:00:46;18.30;99.90
8664;DHT22;4369;47.842;13.096;2023-08-12T06:03:12;18.40;99.90
8664;DHT22;4369;47.842;13.096;2023-08-12T06:05:40;18.50;99.90
8664;DHT22;4369;47.842;13.096;2023-08-12T06:08:07;18.50;99.90
8664;DHT22;4369;47.842;13.096;2023-08-12T06:10:34;18.60;99.90
8664;DHT22;4369;47.842;13.096;2023-08-12T06:13:01;18.70;99.90
8664;DHT22;4369;47.842;13.096;2023-08-12T06:15:29;18.70;99.90
8664;DHT22;4369;47.842;13.096;2023-08-12T06:17:56;18.70;99.90
8664;DHT22;4369;47.842;13.096;2023-08-12T06:20:23;18.80;99.90
8664;DHT22;4369;47.842;13.096;2023-08-12T06:22:50;18.80;99.90
8664;DHT22;4369;47.842;13.096;2023-08-12T06:25:17;18.90;99.90
8664;DHT22;4369;47.842;13.096;2023-08-12T06:27:45;18.90;99.90
8664;DHT22;4369;47.842;13.096;2023-08-12T06:30:13;18.90;99.90
8664;DHT22;4369;47.842;13.096;2023-08-12T06:32:41;19.00;99.90
8664;DHT22;4369;47.842;13.096;2023-08-12T06:35:08;19.00;99.90
8664;DHT22;4369;47.842;13.096;2023-08-12T06:37:35;19.10;99.90
8664;DHT22;4369;47.842;13.096;2023-08-12T06:40:03;19.10;99.90
8664;DHT22;4369;47.842;13.096;2023-08-12T06:42:30;19.20;99.90
8664;DHT22;4369;47.842;13.096;2023-08-12T06:44:59;19.20;99.90
8664;DHT22;4369;47.842;13.096;2023-08-12T06:47:26;19.40;99.90
8664;DHT22;4369;47.842;13.096;2023-08-12T06:49:56;19.50;99.90
8664;DHT22;4369;47.842;13.096;2023-08-12T06:52:23;19.60;97.60
8664;DHT22;4369;47.842;13.096;2023-08-12T06:54:50;19.60;99.90
8664;DHT22;4369;47.842;13.096;2023-08-12T06:57:17;19.80;99.90
8664;DHT22;4369;47.842;13.096;2023-08-12T06:59:44;19.90;99.90
8664;DHT22;4369;47.842;13.096;2023-08-12T07:02:12;20.10;99.90
8664;DHT22;4369;47.842;13.096;2023-08-12T07:04:38;20.10;97.50
8664;DHT22;4369;47.842;13.096;2023-08-12T07:07:07;20.20;86.00
8664;DHT22;4369;47.842;13.096;2023-08-12T07:09:34;20.30;84.10
8664;DHT22;4369;47.842;13.096;2023-08-12T07:12:00;20.50;99.90
8664;DHT22;4369;47.842;13.096;2023-08-12T07:14:28;20.60;99.90
8664;DHT22;4369;47.842;13.096;2023-08-12T07:16:55;20.60;94.20
8664;DHT22;4369;47.842;13.096;2023-08-12T07:19:22;20.70;59.60
8664;DHT22;4369;47.842;13.096;2023-08-12T07:21:49;20.70;57.80
8664;DHT22;4369;47.842;13.096;2023-08-12T07:24:18;20.80;47.10
8664;DHT22;4369;47.842;13.096;2023-08-12T07:26:44;20.90;43.80
8664;DHT22;4369;47.842;13.096;2023-08-12T07:29:11;21.00;47.40
8664;DHT22;4369;47.842;13.096;2023-08-12T07:31:38;21.10;35.10
8664;DHT22;4369;47.842;13.096;2023-08-12T07:34:05;21.20;1.00
8664;DHT22;4369;47.842;13.096;2023-08-12T07:36:32;21.30;1.00
8664;DHT22;4369;47.842;13.096;2023-08-12T07:38:59;21.40;1.00
8664;DHT22;4369;47.842;13.096;2023-08-12T07:41:27;21.50;1.00
8664;DHT22;4369;47.842;13.096;2023-08-12T07:43:54;21.60;99.90
8664;DHT22;4369;47.842;13.096;2023-08-12T07:46:21;21.70;99.90
8664;DHT22;4369;47.842;13.096;2023-08-12T07:48:48;21.70;99.90
8664;DHT22;4369;47.842;13.096;2023-08-12T07:51:15;21.90;99.90
8664;DHT22;4369;47.842;13.096;2023-08-12T07:53:42;22.00;1.00
8664;DHT22;4369;47.842;13.096;2023-08-12T07:56:09;22.10;99.90
8664;DHT22;4369;47.842;13.096;2023-08-12T07:58:37;22.20;99.90
8664;DHT22;4369;47.842;13.096;2023-08-12T08:01:04;22.30;99.90
8664;DHT22;4369;47.842;13.096;2023-08-12T08:03:33;22.40;99.90
8664;DHT22;4369;47.842;13.096;2023-08-12T08:06:00;22.50;89.50
8664;DHT22;4369;47.842;13.096;2023-08-12T08:08:27;22.50;74.10
8664;DHT22;4369;47.842;13.096;2023-08-12T08:10:54;22.70;17.00
8664;DHT22;4369;47.842;13.096;2023-08-12T08:13:21;22.80;4.90
8664;DHT22;4369;47.842;13.096;2023-08-12T08:15:49;22.80;1.00
8664;DHT22;4369;47.842;13.096;2023-08-12T08:18:16;23.00;1.00
8664;DHT22;4369;47.842;13.096;2023-08-12T08:20:43;23.00;1.00
8664;DHT22;4369;47.842;13.096;2023-08-12T08:23:10;23.10;1.00
8664;DHT22;4369;47.842;13.096;2023-08-12T08:25:36;23.20;1.00
8664;DHT22;4369;47.842;13.096;2023-08-12T08:28:04;23.20;1.00
8664;DHT22;4369;47.842;13.096;2023-08-12T08:30:30;23.20;1.00
8664;DHT22;4369;47.842;13.096;2023-08-12T08:32:59;23.30;1.00
8664;DHT22;4369;47.842;13.096;2023-08-12T08:35:25;23.40;1.00
8664;DHT22;4369;47.842;13.096;2023-08-12T08:37:53;23.40;1.00
8664;DHT22;4369;47.842;13.096;2023-08-12T08:40:20;23.50;1.00
8664;DHT22;4369;47.842;13.096;2023-08-12T08:42:52;23.60;1.00
8664;DHT22;4369;47.842;13.096;2023-08-12T08:45:21;23.60;1.00
8664;DHT22;4369;47.842;13.096;2023-08-12T08:47:49;23.70;1.00
8664;DHT22;4369;47.842;13.096;2023-08-12T08:50:19;23.80;1.00
8664;DHT22;4369;47.842;13.096;2023-08-12T08:52:48;23.80;1.00
8664;DHT22;4369;47.842;13.096;2023-08-12T08:55:15;23.90;1.00
8664;DHT22;4369;47.842;13.096;2023-08-12T08:57:43;23.90;1.00
8664;DHT22;4369;47.842;13.096;2023-08-12T09:00:11;24.00;1.00
8664;DHT22;4369;47.842;13.096;2023-08-12T09:02:40;24.10;1.00
8664;DHT22;4369;47.842;13.096;2023-08-12T09:05:08;24.20;1.00
8664;DHT22;4369;47.842;13.096;2023-08-12T09:07:37;24.30;1.00
8664;DHT22;4369;47.842;13.096;2023-08-12T09:10:05;24.30;1.00
8664;DHT22;4369;47.842;13.096;2023-08-12T09:12:32;24.40;1.00
8664;DHT22;4369;47.842;13.096;2023-08-12T09:15:00;24.40;1.00
8664;DHT22;4369;47.842;13.096;2023-08-12T09:17:26;24.50;1.00
8664;DHT22;4369;47.842;13.096;2023-08-12T09:19:53;24.60;1.00
8664;DHT22;4369;47.842;13.096;2023-08-12T09:22:24;24.60;1.00
8664;DHT22;4369;47.842;13.096;2023-08-12T09:24:56;24.70;1.00
8664;DHT22;4369;47.842;13.096;2023-08-12T09:27:23;24.80;1.00
8664;DHT22;4369;47.842;13.096;2023-08-12T09:29:51;24.90;1.00
8664;DHT22;4369;47.842;13.096;2023-08-12T09:32:21;25.00;1.00
8664;DHT22;4369;47.842;13.096;2023-08-12T09:34:50;25.10;1.00
8664;DHT22;4369;47.842;13.096;2023-08-12T09:37:18;25.00;1.00
8664;DHT22;4369;47.842;13.096;2023-08-12T09:39:46;25.10;1.00
8664;DHT22;4369;47.842;13.096;2023-08-12T09:42:15;25.20;1.00
8664;DHT22;4369;47.842;13.096;2023-08-12T09:44:43;25.40;1.00
8664;DHT22;4369;47.842;13.096;2023-08-12T09:47:10;25.50;1.00
8664;DHT22;4369;47.842;13.096;2023-08-12T09:49:38;25.60;1.00
8664;DHT22;4369;47.842;13.096;2023-08-12T09:52:07;25.80;1.00
8664;DHT22;4369;47.842;13.096;2023-08-12T09:54:34;25.80;1.00
8664;DHT22;4369;47.842;13.096;2023-08-12T09:57:03;25.70;1.00
8664;DHT22;4369;47.842;13.096;2023-08-12T09:59:32;25.90;1.00
8664;DHT22;4369;47.842;13.096;2023-08-12T10:01:59;26.00;1.00
8664;DHT22;4369;47.842;13.096;2023-08-12T10:04:33;26.20;1.00
8664;DHT22;4369;47.842;13.096;2023-08-12T10:07:02;26.40;1.00
8664;DHT22;4369;47.842;13.096;2023-08-12T10:09:30;26.50;1.00
8664;DHT22;4369;47.842;13.096;2023-08-12T10:11:57;26.50;1.00
8664;DHT22;4369;47.842;13.096;2023-08-12T10:14:25;26.80;1.00
8664;DHT22;4369;47.842;13.096;2023-08-12T10:16:54;26.80;1.00
8664;DHT22;4369;47.842;13.096;2023-08-12T10:19:22;27.00;1.00
8664;DHT22;4369;47.842;13.096;2023-08-12T10:21:54;27.10;1.00
8664;DHT22;4369;47.842;13.096;2023-08-12T10:24:21;27.20;1.00
8664;DHT22;4369;47.842;13.096;2023-08-12T10:26:49;27.30;1.00
8664;DHT22;4369;47.842;13.096;2023-08-12T10:29:17;27.40;1.00
8664;DHT22;4369;47.842;13.096;2023-08-12T10:31:45;27.50;1.00
8664;DHT22;4369;47.842;13.096;2023-08-12T10:34:19;27.60;1.00
8664;DHT22;4369;47.842;13.096;2023-08-12T10:36:47;27.70;1.00
8664;DHT22;4369;47.842;13.096;2023-08-12T10:39:14;27.80;1.00
8664;DHT22;4369;47.842;13.096;2023-08-12T10:41:50;27.80;1.00
8664;DHT22;4369;47.842;13.096;2023-08-12T10:44:20;28.00;1.00
8664;DHT22;4369;47.842;13.096;2023-08-12T10:46:50;28.00;1.00
8664;DHT22;4369;47.842;13.096;2023-08-12T10:49:21;28.10;1.00
8664;DHT22;4369;47.842;13.096;2023-08-12T10:51:49;28.20;1.00
8664;DHT22;4369;47.842;13.096;2023-08-12T10:54:19;28.50;1.00
8664;DHT22;4369;47.842;13.096;2023-08-12T10:57:09;28.60;1.00
8664;DHT22;4369;47.842;13.096;2023-08-12T10:59:52;28.70;1.00
8664;DHT22;4369;47.842;13.096;2023-08-12T11:02:21;28.80;1.00
8664;DHT22;4369;47.842;13.096;2023-08-12T11:04:52;28.90;1.00
8664;DHT22;4369;47.842;13.096;2023-08-12T11:07:20;29.10;1.00
8664;DHT22;4369;47.842;13.096;2023-08-12T11:09:51;29.20;1.00
8664;DHT22;4369;47.842;13.096;2023-08-12T11:12:28;29.40;1.00
8664;DHT22;4369;47.842;13.096;2023-08-12T11:14:58;29.50;1.00
8664;DHT22;4369;47.842;13.096;2023-08-12T11:17:33;29.50;1.00
8664;DHT22;4369;47.842;13.096;2023-08-12T11:20:04;29.80;1.00
8664;DHT22;4369;47.842;13.096;2023-08-12T11:22:33;29.90;1.00
8664;DHT22;4369;47.842;13.096;2023-08-12T11:25:02;30.20;1.00
8664;DHT22;4369;47.842;13.096;2023-08-12T11:27:36;30.40;1.00
8664;DHT22;4369;47.842;13.096;2023-08-12T11:30:04;30.60;1.00
8664;DHT22;4369;47.842;13.096;2023-08-12T11:32:31;30.80;1.00
8664;DHT22;4369;47.842;13.096;2023-08-12T11:34:59;30.90;1.00
8664;DHT22;4369;47.842;13.096;2023-08-12T11:37:27;31.10;1.00
8664;DHT22;4369;47.842;13.096;2023-08-12T11:39:54;31.10;1.00
8664;DHT22;4369;47.842;13.096;2023-08-12T11:42:21;31.10;1.00
8664;DHT22;4369;47.842;13.096;2023-08-12T11:44:48;31.20;1.00
8664;DHT22;4369;47.842;13.096;2023-08-12T11:47:15;31.30;1.00
8664;DHT22;4369;47.842;13.096;2023-08-12T11:49:42;31.40;1.00
8664;DHT22;4369;47.842;13.096;2023-08-12T11:52:09;31.60;1.00
8664;DHT22;4369;47.842;13.096;2023-08-12T11:54:38;31.80;1.00
8664;DHT22;4369;47.842;13.096;2023-08-12T11:57:05;31.80;1.00
8664;DHT22;4369;47.842;13.096;2023-08-12T11:59:32;32.00;1.00
8664;DHT22;4369;47.842;13.096;2023-08-12T12:02:01;32.20;1.00
8664;DHT22;4369;47.842;13.096;2023-08-12T12:04:31;32.30;1.00
8664;DHT22;4369;47.842;13.096;2023-08-12T12:06:58;32.50;1.00
8664;DHT22;4369;47.842;13.096;2023-08-12T12:09:25;32.70;1.00
8664;DHT22;4369;47.842;13.096;2023-08-12T12:11:54;32.90;1.00
8664;DHT22;4369;47.842;13.096;2023-08-12T12:14:21;33.10;1.00
8664;DHT22;4369;47.842;13.096;2023-08-12T12:16:48;33.40;1.00
8664;DHT22;4369;47.842;13.096;2023-08-12T12:19:18;33.80;1.00
8664;DHT22;4369;47.842;13.096;2023-08-12T12:21:46;34.20;1.00
8664;DHT22;4369;47.842;13.096;2023-08-12T12:24:13;34.40;1.00
8664;DHT22;4369;47.842;13.096;2023-08-12T12:26:41;34.50;1.00
8664;DHT22;4369;47.842;13.096;2023-08-12T12:29:09;34.60;1.00
8664;DHT22;4369;47.842;13.096;2023-08-12T12:31:37;34.70;1.00
8664;DHT22;4369;47.842;13.096;2023-08-12T12:34:05;34.80;1.00
8664;DHT22;4369;47.842;13.096;2023-08-12T12:36:34;34.50;1.00
8664;DHT22;4369;47.842;13.096;2023-08-12T12:39:02;35.00;1.00
8664;DHT22;4369;47.842;13.096;2023-08-12T12:41:29;35.40;1.00
8664;DHT22;4369;47.842;13.096;2023-08-12T12:43:56;35.80;1.00
8664;DHT22;4369;47.842;13.096;2023-08-12T12:46:24;35.80;1.00
8664;DHT22;4369;47.842;13.096;2023-08-12T12:48:51;35.70;1.00
8664;DHT22;4369;47.842;13.096;2023-08-12T12:51:18;36.10;1.00
8664;DHT22;4369;47.842;13.096;2023-08-12T12:53:44;36.40;1.00
8664;DHT22;4369;47.842;13.096;2023-08-12T12:56:11;36.80;1.00
8664;DHT22;4369;47.842;13.096;2023-08-12T12:58:39;36.70;1.00
8664;DHT22;4369;47.842;13.096;2023-08-12T13:01:06;36.60;1.00
8664;DHT22;4369;47.842;13.096;2023-08-12T13:03:34;36.40;1.00
8664;DHT22;4369;47.842;13.096;2023-08-12T13:06:01;36.10;1.00
8664;DHT22;4369;47.842;13.096;2023-08-12T13:08:29;35.70;1.00
8664;DHT22;4369;47.842;13.096;2023-08-12T13:10:57;36.10;1.00
8664;DHT22;4369;47.842;13.096;2023-08-12T13:13:24;36.70;1.00
8664;DHT22;4369;47.842;13.096;2023-08-12T13:15:51;37.40;1.00
8664;DHT22;4369;47.842;13.096;2023-08-12T13:18:18;38.00;1.00
8664;DHT22;4369;47.842;13.096;2023-08-12T13:20:47;38.40;1.00
8664;DHT22;4369;47.842;13.096;2023-08-12T13:23:14;38.70;1.00
8664;DHT22;4369;47.842;13.096;2023-08-12T13:25:42;38.70;1.00
8664;DHT22;4369;47.842;13.096;2023-08-12T13:28:09;39.70;1.00
8664;DHT22;4369;47.842;13.096;2023-08-12T13:30:36;40.40;1.00
8664;DHT22;4369;47.842;13.096;2023-08-12T13:33:03;41.10;1.00
8664;DHT22;4369;47.842;13.096;2023-08-12T13:35:30;41.60;1.00
8664;DHT22;4369;47.842;13.096;2023-08-12T13:37:59;41.40;1.00
8664;DHT22;4369;47.842;13.096;2023-08-12T13:40:32;41.10;1.00
8664;DHT22;4369;47.842;13.096;2023-08-12T13:42:59;40.90;1.00
8664;DHT22;4369;47.842;13.096;2023-08-12T13:45:26;42.20;1.00
8664;DHT22;4369;47.842;13.096;2023-08-12T13:47:53;44.50;1.00
8664;DHT22;4369;47.842;13.096;2023-08-12T13:50:20;45.50;1.00
8664;DHT22;4369;47.842;13.096;2023-08-12T13:52:47;47.60;1.00
8664;DHT22;4369;47.842;13.096;2023-08-12T13:55:16;49.30;1.00
8664;DHT22;4369;47.842;13.096;2023-08-12T13:57:43;52.00;1.00
8664;DHT22;4369;47.842;13.096;2023-08-12T14:00:10;54.60;1.00
8664;DHT22;4369;47.842;13.096;2023-08-12T14:02:39;56.50;1.00
8664;DHT22;4369;47.842;13.096;2023-08-12T14:05:07;57.40;1.00
8664;DHT22;4369;47.842;13.096;2023-08-12T14:07:35;56.70;1.00
8664;DHT22;4369;47.842;13.096;2023-08-12T14:10:03;55.50;1.00
8664;DHT22;4369;47.842;13.096;2023-08-12T14:12:31;54.20;1.00
8664;DHT22;4369;47.842;13.096;2023-08-12T14:14:59;55.10;1.00
8664;DHT22;4369;47.842;13.096;2023-08-12T14:17:25;56.00;1.00
8664;DHT22;4369;47.842;13.096;2023-08-12T14:19:52;57.20;1.00
8664;DHT22;4369;47.842;13.096;2023-08-12T14:22:20;56.50;1.00
8664;DHT22;4369;47.842;13.096;2023-08-12T14:24:47;57.40;1.00
8664;DHT22;4369;47.842;13.096;2023-08-12T14:27:15;57.50;1.00
8664;DHT22;4369;47.842;13.096;2023-08-12T14:29:44;57.80;1.00
8664;DHT22;4369;47.842;13.096;2023-08-12T14:32:12;58.70;1.00
8664;DHT22;4369;47.842;13.096;2023-08-12T14:34:41;57.80;1.00
8664;DHT22;4369;47.842;13.096;2023-08-12T14:37:10;58.00;1.00
8664;DHT22;4369;47.842;13.096;2023-08-12T14:39:37;57.90;1.00
8664;DHT22;4369;47.842;13.096;2023-08-12T14:42:05;57.70;1.00
8664;DHT22;4369;47.842;13.096;2023-08-12T14:44:34;57.20;1.00
8664;DHT22;4369;47.842;13.096;2023-08-12T14:47:02;56.40;1.00
8664;DHT22;4369;47.842;13.096;2023-08-12T14:49:29;55.70;1.00
8664;DHT22;4369;47.842;13.096;2023-08-12T14:51:56;54.70;1.00
8664;DHT22;4369;47.842;13.096;2023-08-12T14:54:23;53.90;1.00
8664;DHT22;4369;47.842;13.096;2023-08-12T14:56:50;53.60;1.00
8664;DHT22;4369;47.842;13.096;2023-08-12T14:59:17;52.60;1.00
8664;DHT22;4369;47.842;13.096;2023-08-12T15:01:46;51.50;1.00
8664;DHT22;4369;47.842;13.096;2023-08-12T15:04:14;50.40;1.00
8664;DHT22;4369;47.842;13.096;2023-08-12T15:06:42;49.80;1.00
8664;DHT22;4369;47.842;13.096;2023-08-12T15:09:09;49.00;1.00
8664;DHT22;4369;47.842;13.096;2023-08-12T15:11:36;48.50;1.00
8664;DHT22;4369;47.842;13.096;2023-08-12T15:14:03;48.70;1.00
8664;DHT22;4369;47.842;13.096;2023-08-12T15:16:30;48.10;1.00
8664;DHT22;4369;47.842;13.096;2023-08-12T15:18:58;47.90;1.00
8664;DHT22;4369;47.842;13.096;2023-08-12T15:21:26;46.50;1.00
8664;DHT22;4369;47.842;13.096;2023-08-12T15:23:53;45.00;1.00
8664;DHT22;4369;47.842;13.096;2023-08-12T15:26:20;43.80;1.00
8664;DHT22;4369;47.842;13.096;2023-08-12T15:28:48;42.50;1.00
8664;DHT22;4369;47.842;13.096;2023-08-12T15:31:14;41.50;1.00
8664;DHT22;4369;47.842;13.096;2023-08-12T15:33:41;40.40;1.00
8664;DHT22;4369;47.842;13.096;2023-08-12T15:36:08;39.50;1.00
8664;DHT22;4369;47.842;13.096;2023-08-12T15:38:36;39.10;1.00
8664;DHT22;4369;47.842;13.096;2023-08-12T15:41:12;38.90;1.00
8664;DHT22;4369;47.842;13.096;2023-08-12T15:43:39;39.00;1.00
8664;DHT22;4369;47.842;13.096;2023-08-12T15:46:06;38.80;1.00
8664;DHT22;4369;47.842;13.096;2023-08-12T15:48:33;39.40;1.00
8664;DHT22;4369;47.842;13.096;2023-08-12T15:50:59;39.80;1.00
8664;DHT22;4369;47.842;13.096;2023-08-12T15:53:26;39.60;1.00
8664;DHT22;4369;47.842;13.096;2023-08-12T15:55:55;38.60;1.00
8664;DHT22;4369;47.842;13.096;2023-08-12T15:58:22;38.60;1.00
8664;DHT22;4369;47.842;13.096;2023-08-12T16:00:49;38.10;1.00
8664;DHT22;4369;47.842;13.096;2023-08-12T16:03:17;37.80;1.00